Time;durP1;ratioP1;P1;durP2;ratioP2;P2;SDS_P1;SDS_P2;PMS_P1;PMS_P2;Temp;Humidity;BMP_temperature;BMP_pressure;BME280_temperature;BME280_humidity;BME280_pressure;Samples;Min_cycle;Max_cycle;Signal;HPM_P1;HPM_P2
2023/07/27 00:00:08;;;;;;;0.95;0.80;;;;;;;16.30;80.24;99289.72;339972;28;4692;-72
2023/07/27 00:00:20;;;;;;;0.80;0.80;;;;;;;16.33;79.62;99299.16;335671;28;17973;-72
2023/07/27 00:00:32;;;;;;;0.75;0.75;;;;;;;16.32;79.77;99289.63;340430;28;11207;-71
2023/07/27 00:00:44;;;;;;;0.82;0.80;;;;;;;16.33;79.36;99292.13;337198;28;18850;-72
2023/07/27 00:00:56;;;;;;;0.98;0.90;;;;;;;16.33;79.29;99289.50;339424;28;4599;-71
2023/07/27 00:01:09;;;;;;;0.95;0.90;;;;;;;16.33;79.70;99289.50;334332;28;4619;-71
2023/07/27 00:01:21;;;;;;;1.10;0.88;;;;;;;16.37;79.58;99290.16;341495;28;5227;-72
2023/07/27 00:01:33;;;;;;;1.27;0.90;;;;;;;16.41;79.18;99291.66;341059;28;13385;-72
2023/07/27 00:01:45;;;;;;;1.50;0.93;;;;;;;16.42;79.09;99293.34;338740;28;18185;-71
2023/07/27 00:01:57;;;;;;;1.75;1.08;;;;;;;16.44;78.72;99293.22;335320;28;4523;-71
2023/07/27 00:02:09;;;;;;;1.65;1.20;;;;;;;16.46;78.45;99293.97;337451;28;4634;-72
2023/07/27 00:02:23;;;;;;;1.65;1.15;;;;;;;16.46;78.41;99288.72;341568;28;4507;-71
2023/07/27 00:02:35;;;;;;;1.40;0.90;;;;;;;16.45;78.06;99287.06;338306;28;18054;-72
2023/07/27 00:02:48;;;;;;;1.80;0.85;;;;;;;16.45;77.86;99287.91;341347;28;5720;-73
2023/07/27 00:03:01;;;;;;;2.13;1.00;;;;;;;16.46;78.03;99294.84;338351;28;11921;-71
2023/07/27 00:03:13;;;;;;;1.30;1.02;;;;;;;16.45;77.66;99301.00;340400;28;4693;-72
2023/07/27 00:03:25;;;;;;;1.15;0.95;;;;;;;16.44;77.72;99294.09;338693;28;9344;-74
2023/07/27 00:03:37;;;;;;;1.10;1.00;;;;;;;16.41;77.74;99290.81;341369;28;5587;-72
2023/07/27 00:03:50;;;;;;;1.20;1.10;;;;;;;16.41;77.79;99301.31;338621;28;12349;-72
2023/07/27 00:04:02;;;;;;;1.25;0.95;;;;;;;16.42;77.74;99287.25;342589;28;5758;-72
2023/07/27 00:04:14;;;;;;;1.38;1.00;;;;;;;16.41;77.73;99296.06;342220;28;4547;-71
2023/07/27 00:04:26;;;;;;;1.60;1.17;;;;;;;16.41;77.84;99296.06;339232;28;17573;-72
2023/07/27 00:04:38;;;;;;;1.58;1.10;;;;;;;16.41;77.52;99293.44;342373;28;5289;-71
2023/07/27 00:04:50;;;;;;;1.40;1.10;;;;;;;16.38;77.52;99287.44;338626;28;18289;-71
2023/07/27 00:05:03;;;;;;;1.50;0.93;;;;;;;16.41;77.63;99293.44;343109;28;4487;-71
2023/07/27 00:05:16;;;;;;;1.40;0.95;;;;;;;16.41;77.71;99290.81;340998;28;7959;-72
2023/07/27 00:05:28;;;;;;;1.20;1.00;;;;;;;16.40;78.03;99300.47;341548;28;4517;-71
2023/07/27 00:05:40;;;;;;;1.10;1.00;;;;;;;16.38;78.32;99291.84;337768;28;12349;-71
2023/07/27 00:05:52;;;;;;;1.88;1.00;;;;;;;16.33;78.53;99284.25;341241;28;5827;-71
2023/07/27 00:06:04;;;;;;;1.60;0.90;;;;;;;16.29;79.06;99293.25;341175;28;4467;-72
2023/07/27 00:06:16;;;;;;;1.77;1.00;;;;;;;16.27;79.11;99287.25;337867;28;18152;-72
2023/07/27 00:06:28;;;;;;;1.25;1.00;;;;;;;16.25;79.54;99299.63;335600;28;4528;-71
2023/07/27 00:06:40;;;;;;;1.92;1.05;;;;;;;16.25;79.45;99301.41;338096;28;5457;-72
2023/07/27 00:06:53;;;;;;;2.00;1.00;;;;;;;16.25;79.44;99289.13;340662;28;17385;-71
2023/07/27 00:07:05;;;;;;;1.88;1.05;;;;;;;16.24;79.64;99295.34;341144;28;4734;-71
2023/07/27 00:07:17;;;;;;;1.20;1.10;;;;;;;16.27;79.72;99289.88;336954;28;18454;-71
2023/07/27 00:07:30;;;;;;;1.20;1.10;;;;;;;16.27;79.73;99294.28;338860;28;4639;-73
2023/07/27 00:07:42;;;;;;;1.10;1.00;;;;;;;16.28;79.70;99288.97;336153;28;18448;-72
2023/07/27 00:07:55;;;;;;;1.30;1.00;;;;;;;16.27;79.64;99289.88;340283;28;4525;-71
2023/07/27 00:08:07;;;;;;;1.10;0.95;;;;;;;16.28;79.78;99298.59;337188;28;5076;-71
2023/07/27 00:08:19;;;;;;;1.10;1.00;;;;;;;16.28;79.92;99286.34;338000;28;4653;-71
2023/07/27 00:08:31;;;;;;;1.02;0.90;;;;;;;16.30;79.18;99292.34;338891;28;5221;-73
2023/07/27 00:08:43;;;;;;;1.30;1.00;;;;;;;16.31;79.16;99291.38;336003;28;17997;-73
2023/07/27 00:08:56;;;;;;;1.45;1.10;;;;;;;16.31;79.52;99291.38;339552;28;5276;-71
2023/07/27 00:09:09;;;;;;;1.15;0.98;;;;;;;16.33;79.51;99289.50;336696;28;18131;-71
2023/07/27 00:09:21;;;;;;;0.88;0.80;;;;;;;16.35;79.59;99287.63;338861;28;4907;-70
2023/07/27 00:09:33;;;;;;;0.80;0.70;;;;;;;16.34;79.84;99291.19;337775;28;16511;-71
2023/07/27 00:09:45;;;;;;;0.98;0.88;;;;;;;16.38;79.35;99292.69;338954;28;18153;-71
2023/07/27 00:09:57;;;;;;;1.33;1.05;;;;;;;16.41;79.37;99293.44;342339;28;4519;-73
2023/07/27 00:10:09;;;;;;;1.45;1.17;;;;;;;16.36;79.36;99289.31;338950;28;17831;-71
2023/07/27 00:10:24;;;;;;;2.15;1.40;;;;;;;16.40;79.31;99291.75;341416;28;4689;-71
2023/07/27 00:10:36;;;;;;;2.58;1.35;;;;;;;16.41;79.61;99290.81;337128;28;18250;-71
2023/07/27 00:10:48;;;;;;;2.17;1.27;;;;;;;16.41;79.42;99286.41;336919;28;16476;-72
2023/07/27 00:11:00;;;;;;;1.65;1.15;;;;;;;16.44;79.46;99290.59;341156;28;5303;-72
2023/07/27 00:11:13;;;;;;;1.73;1.10;;;;;;;16.45;78.87;99294.94;337578;28;4736;-72
2023/07/27 00:11:25;;;;;;;1.52;1.10;;;;;;;16.45;78.80;99287.06;339791;28;4651;-71
2023/07/27 00:11:37;;;;;;;1.45;1.10;;;;;;;16.45;78.70;99287.06;339743;28;4973;-71
2023/07/27 00:11:49;;;;;;;1.48;1.10;;;;;;;16.45;78.63;99290.53;338231;28;18084;-72
2023/07/27 00:12:01;;;;;;;1.20;0.98;;;;;;;16.47;78.44;99295.69;340161;28;5131;-71
2023/07/27 00:12:13;;;;;;;1.08;0.90;;;;;;;16.44;78.48;99288.84;340189;28;19958;-72
2023/07/27 00:12:25;;;;;;;1.00;0.90;;;;;;;16.45;78.38;99287.06;337670;28;18121;-71
2023/07/27 00:12:38;;;;;;;0.80;0.80;;;;;;;16.44;78.47;99288.84;336219;28;5323;-71
2023/07/27 00:12:51;;;;;;;0.80;0.80;;;;;;;16.43;78.38;99286.31;336466;28;18400;-71
2023/07/27 00:13:03;;;;;;;0.77;0.77;;;;;;;16.44;78.57;99290.59;339236;28;7958;-71
2023/07/27 00:13:17;;;;;;;0.82;0.80;;;;;;;16.41;78.76;99290.81;336537;28;18200;-71
2023/07/27 00:13:29;;;;;;;1.40;0.90;;;;;;;16.43;78.33;99289.78;336370;28;8897;-75
2023/07/27 00:13:41;;;;;;;1.55;0.90;;;;;;;16.45;78.06;99294.94;339420;28;4607;-71
2023/07/27 00:13:53;;;;;;;1.33;0.90;;;;;;;16.47;77.95;99285.19;339254;28;4504;-71
2023/07/27 00:14:05;;;;;;;1.10;0.98;;;;;;;16.47;77.90;99287.81;338440;28;16453;-72
2023/07/27 00:14:17;;;;;;;1.15;1.00;;;;;;;16.45;77.84;99287.91;336932;28;19123;-71
2023/07/27 00:14:29;;;;;;;1.23;0.90;;;;;;;16.45;77.82;99285.28;340800;28;5239;-71
2023/07/27 00:14:41;;;;;;;1.30;0.93;;;;;;;16.45;78.03;99293.16;338355;28;18338;-71
2023/07/27 00:14:53;;;;;;;1.05;0.90;;;;;;;16.44;78.08;99287.97;341356;28;5114;-71
2023/07/27 00:15:06;;;;;;;1.02;0.93;;;;;;;16.45;77.98;99287.06;337830;28;16318;-70
2023/07/27 00:15:18;;;;;;;1.05;0.90;;;;;;;16.44;77.66;99291.47;340416;28;4520;-71
2023/07/27 00:15:30;;;;;;;1.02;0.90;;;;;;;16.42;77.93;99282.84;340463;28;12327;-71
2023/07/27 00:15:42;;;;;;;0.93;0.75;;;;;;;16.44;77.70;99286.22;332455;28;18354;-72
2023/07/27 00:15:54;;;;;;;1.02;0.90;;;;;;;16.42;78.44;99284.63;339262;28;4514;-74
2023/07/27 00:16:06;;;;;;;0.95;0.85;;;;;;;16.40;78.65;99289.13;337351;28;5169;-70
2023/07/27 00:16:18;;;;;;;0.98;0.90;;;;;;;16.41;78.36;99285.56;340540;28;4488;-71
2023/07/27 00:16:30;;;;;;;0.88;0.82;;;;;;;16.36;78.69;99286.69;340493;28;4774;-71
2023/07/27 00:16:42;;;;;;;1.15;0.80;;;;;;;16.34;78.96;99283.34;338394;28;18061;-71
2023/07/27 00:16:54;;;;;;;1.15;0.90;;;;;;;16.36;79.01;99278.00;340030;28;4491;-71
2023/07/27 00:17:07;;;;;;;1.13;0.90;;;;;;;16.37;78.75;99279.66;338231;28;17975;-72
2023/07/27 00:17:19;;;;;;;0.90;0.80;;;;;;;16.35;78.91;99279.75;340567;28;4844;-71
2023/07/27 00:17:31;;;;;;;1.17;0.90;;;;;;;16.37;78.63;99280.50;341348;28;4676;-71
2023/07/27 00:17:43;;;;;;;1.60;1.00;;;;;;;16.40;78.45;99283.88;337189;28;18054;-71
2023/07/27 00:17:55;;;;;;;1.55;0.95;;;;;;;16.41;78.43;99285.56;341056;28;5124;-70
2023/07/27 00:18:07;;;;;;;1.30;1.00;;;;;;;16.42;78.25;99287.25;335854;28;18012;-71
2023/07/27 00:18:19;;;;;;;1.13;0.90;;;;;;;16.42;78.47;99284.63;339545;28;5217;-70
2023/07/27 00:18:31;;;;;;;1.15;1.00;;;;;;;16.43;78.14;99281.06;339423;28;4715;-71
2023/07/27 00:18:43;;;;;;;1.88;1.08;;;;;;;16.44;78.30;99280.13;336841;28;18289;-71
2023/07/27 00:18:55;;;;;;;1.80;0.98;;;;;;;16.44;78.06;99280.97;335016;28;5409;-71
2023/07/27 00:19:07;;;;;;;1.13;0.93;;;;;;;16.47;78.35;99285.19;339848;28;5362;-71
2023/07/27 00:19:19;;;;;;;1.10;1.00;;;;;;;16.48;78.19;99281.59;334730;28;16713;-70
2023/07/27 00:19:31;;;;;;;1.00;0.90;;;;;;;16.48;78.14;99281.59;339458;28;5242;-71
2023/07/27 00:19:43;;;;;;;0.85;0.85;;;;;;;16.50;77.81;99282.34;337453;28;4506;-71
2023/07/27 00:19:55;;;;;;;1.10;1.00;;;;;;;16.49;78.34;99284.13;339896;28;5579;-71
2023/07/27 00:20:08;;;;;;;1.10;0.95;;;;;;;16.51;78.26;99281.44;337869;28;4593;-72
2023/07/27 00:20:20;;;;;;;1.33;0.95;;;;;;;16.52;77.91;99281.34;339180;28;16998;-71
2023/07/27 00:20:32;;;;;;;1.30;0.80;;;;;;;16.52;77.88;99285.72;341066;28;4506;-71
2023/07/27 00:20:44;;;;;;;1.47;1.10;;;;;;;16.52;77.88;99283.09;338424;28;19492;-72
2023/07/27 00:20:56;;;;;;;1.65;1.33;;;;;;;16.48;78.50;99286.84;340375;28;4508;-71
2023/07/27 00:21:08;;;;;;;1.70;1.20;;;;;;;16.44;78.80;99282.75;337488;28;12092;-72
2023/07/27 00:21:21;;;;;;;1.50;1.08;;;;;;;16.45;79.01;99281.81;340782;28;5153;-71
2023/07/27 00:21:33;;;;;;;0.95;0.80;;;;;;;16.45;78.71;99277.41;339077;28;12500;-71
2023/07/27 00:21:45;;;;;;;1.13;1.00;;;;;;;16.45;78.15;99280.03;337059;28;18184;-71
2023/07/27 00:21:57;;;;;;;1.50;1.10;;;;;;;16.44;78.11;99280.97;334289;28;4635;-71
2023/07/27 00:22:09;;;;;;;1.45;1.00;;;;;;;16.43;78.42;99283.69;336708;28;13017;-72
2023/07/27 00:22:21;;;;;;;1.15;0.95;;;;;;;16.43;78.39;99283.69;340664;28;4805;-71
2023/07/27 00:22:33;;;;;;;1.70;1.10;;;;;;;16.40;78.64;99284.72;338066;28;5914;-71
2023/07/27 00:22:45;;;;;;;1.63;1.20;;;;;;;16.40;78.48;99278.63;336576;28;17974;-71
2023/07/27 00:22:57;;;;;;;1.20;1.10;;;;;;;16.42;78.40;99284.63;339913;28;5853;-71
2023/07/27 00:23:09;;;;;;;1.13;1.00;;;;;;;16.41;78.41;99288.19;338551;28;15678;-71
2023/07/27 00:23:21;;;;;;;1.75;1.15;;;;;;;16.41;78.44;99280.31;336411;28;17698;-71
2023/07/27 00:23:33;;;;;;;1.80;1.15;;;;;;;16.42;78.37;99282.00;339256;28;4559;-71
2023/07/27 00:23:45;;;;;;;1.38;1.02;;;;;;;16.41;78.28;99280.31;335920;28;12845;-72
2023/07/27 00:23:57;;;;;;;1.40;1.00;;;;;;;16.41;78.27;99280.31;339109;28;4671;-71
2023/07/27 00:24:09;;;;;;;1.52;0.90;;;;;;;16.41;78.46;99285.56;339995;28;5680;-71
2023/07/27 00:24:21;;;;;;;1.25;0.80;;;;;;;16.42;78.35;99282.00;337330;28;17012;-71
2023/07/27 00:24:33;;;;;;;1.10;0.80;;;;;;;16.43;78.29;99281.06;338936;28;4812;-71
2023/07/27 00:24:45;;;;;;;0.73;0.70;;;;;;;16.44;78.39;99280.13;339835;28;8593;-72
2023/07/27 00:24:57;;;;;;;1.40;0.90;;;;;;;16.43;78.47;99284.53;338614;28;15735;-71
2023/07/27 00:25:10;;;;;;;1.20;0.80;;;;;;;16.42;78.67;99282.00;339923;28;4749;-71
2023/07/27 00:25:22;;;;;;;1.05;0.73;;;;;;;16.40;78.33;99276.88;337860;28;18200;-71
2023/07/27 00:25:34;;;;;;;0.90;0.80;;;;;;;16.42;78.25;99276.75;340621;28;4710;-71
2023/07/27 00:25:46;;;;;;;1.00;0.90;;;;;;;16.43;78.46;99281.06;337789;28;12184;-73
2023/07/27 00:25:58;;;;;;;1.08;0.98;;;;;;;16.42;78.38;99276.75;340030;28;4558;-71
2023/07/27 00:26:10;;;;;;;1.30;1.20;;;;;;;16.43;78.15;99279.28;340372;28;5390;-71
2023/07/27 00:26:22;;;;;;;1.30;1.20;;;;;;;16.44;77.89;99280.13;338571;28;18154;-72
2023/07/27 00:26:34;;;;;;;1.50;1.13;;;;;;;16.46;77.96;99278.25;339551;28;5658;-71
2023/07/27 00:26:46;;;;;;;1.65;1.35;;;;;;;16.44;78.23;99274.88;334990;28;4617;-71
2023/07/27 00:26:58;;;;;;;1.48;1.20;;;;;;;16.43;78.29;99273.19;336406;28;18321;-71
2023/07/27 00:27:10;;;;;;;1.30;1.08;;;;;;;16.42;78.33;99276.75;339783;28;4559;-71
2023/07/27 00:27:22;;;;;;;1.17;1.00;;;;;;;16.41;78.73;99277.69;338575;28;15819;-72
2023/07/27 00:27:34;;;;;;;1.30;1.20;;;;;;;16.38;78.84;99271.72;340318;28;5453;-71
2023/07/27 00:27:46;;;;;;;1.15;1.05;;;;;;;16.38;78.82;99271.72;342168;28;4666;-71
2023/07/27 00:27:58;;;;;;;1.10;1.00;;;;;;;16.32;78.82;99277.34;337849;28;18295;-72
2023/07/27 00:28:10;;;;;;;1.10;1.00;;;;;;;16.31;79.13;99270.41;341971;28;5810;-71
2023/07/27 00:28:22;;;;;;;1.20;1.10;;;;;;;16.32;78.98;99276.50;333425;28;18390;-71
2023/07/27 00:28:34;;;;;;;1.27;1.05;;;;;;;16.31;78.91;99278.25;340937;28;4617;-71
2023/07/27 00:28:46;;;;;;;1.10;1.00;;;;;;;16.33;78.98;99272.94;340746;28;4751;-71
2023/07/27 00:28:58;;;;;;;1.02;0.93;;;;;;;16.33;78.59;99276.38;337303;28;17968;-71
2023/07/27 00:29:10;;;;;;;0.80;0.80;;;;;;;16.32;78.95;99272.09;340146;28;5454;-71
2023/07/27 00:29:22;;;;;;;0.82;0.82;;;;;;;16.33;79.05;99273.75;339623;28;19313;-71
2023/07/27 00:29:34;;;;;;;1.00;0.90;;;;;;;16.32;79.31;99272.09;332468;28;18233;-71
2023/07/27 00:29:46;;;;;;;1.27;0.93;;;;;;;16.32;79.53;99271.25;340922;28;4515;-71
2023/07/27 00:29:58;;;;;;;1.20;0.85;;;;;;;16.33;79.14;99278.19;336965;28;18743;-72
2023/07/27 00:30:13;;;;;;;1.25;0.90;;;;;;;16.32;79.24;99268.63;341501;28;4528;-71
2023/07/27 00:30:25;;;;;;;1.20;1.00;;;;;;;16.33;78.96;99271.13;338398;28;17966;-71
2023/07/27 00:30:37;;;;;;;1.08;0.98;;;;;;;16.32;79.27;99276.50;341276;28;5144;-71
2023/07/27 00:30:52;;;;;;;1.25;0.90;;;;;;;16.29;79.64;99272.28;338696;28;12310;-71
2023/07/27 00:31:05;;;;;;;1.63;0.90;;;;;;;16.29;79.52;99269.66;337503;28;17675;-71
2023/07/27 00:31:17;;;;;;;1.50;1.00;;;;;;;16.29;79.35;99272.28;341044;28;5309;-71
2023/07/27 00:31:29;;;;;;;1.10;0.95;;;;;;;16.31;79.24;99275.63;338348;28;18618;-71
2023/07/27 00:31:41;;;;;;;1.20;1.02;;;;;;;16.29;79.08;99277.50;340538;28;5157;-71
2023/07/27 00:31:53;;;;;;;1.33;1.05;;;;;;;16.29;79.12;99272.28;338125;28;17636;-71
2023/07/27 00:32:06;;;;;;;1.23;1.08;;;;;;;16.29;79.28;99272.28;340477;28;5968;-71
2023/07/27 00:32:18;;;;;;;1.25;1.15;;;;;;;16.29;79.25;99272.28;340973;28;12844;-71
2023/07/27 00:32:30;;;;;;;1.17;1.08;;;;;;;16.31;79.30;99275.63;333580;28;18097;-71
2023/07/27 00:32:42;;;;;;;1.10;1.00;;;;;;;16.29;79.09;99271.44;341236;28;5273;-71
2023/07/27 00:32:54;;;;;;;1.15;0.85;;;;;;;16.32;79.06;99271.25;333009;28;18202;-71
2023/07/27 00:33:06;;;;;;;1.25;0.80;;;;;;;16.33;78.85;99273.75;340259;28;5268;-71
2023/07/27 00:33:18;;;;;;;1.08;0.80;;;;;;;16.32;78.97;99277.34;342486;28;4580;-72
2023/07/27 00:33:30;;;;;;;0.95;0.88;;;;;;;16.33;78.63;99273.75;339159;28;19125;-71
2023/07/27 00:33:42;;;;;;;1.05;0.95;;;;;;;16.33;78.61;99268.50;342663;28;5300;-71
2023/07/27 00:33:54;;;;;;;1.20;1.10;;;;;;;16.34;78.66;99269.38;339684;28;18035;-73
2023/07/27 00:34:06;;;;;;;1.30;1.20;;;;;;;16.33;78.66;99273.75;337095;28;4466;-71
2023/07/27 00:34:18;;;;;;;1.23;1.05;;;;;;;16.32;78.53;99272.09;342896;28;4688;-71
2023/07/27 00:34:30;;;;;;;1.10;0.90;;;;;;;16.32;78.69;99266.84;335057;28;18432;-71
2023/07/27 00:34:43;;;;;;;1.38;1.00;;;;;;;16.28;79.00;99270.59;341555;28;4691;-71
2023/07/27 00:34:55;;;;;;;1.50;1.20;;;;;;;16.27;78.99;99271.53;338563;28;10918;-73
2023/07/27 00:35:07;;;;;;;1.67;1.20;;;;;;;16.27;78.83;99268.91;340621;28;4652;-70
2023/07/27 00:35:19;;;;;;;1.52;1.10;;;;;;;16.27;78.89;99273.31;339346;28;4705;-71
2023/07/27 00:35:31;;;;;;;1.10;1.00;;;;;;;16.26;78.90;99269.84;337143;28;15022;-72
2023/07/27 00:35:43;;;;;;;1.20;1.05;;;;;;;16.26;78.80;99269.84;335115;28;5200;-71
2023/07/27 00:35:59;;;;;;;1.00;0.90;;;;;;;16.26;78.94;99267.22;340201;28;4647;-71
2023/07/27 00:36:11;;;;;;;1.08;0.98;;;;;;;16.27;78.54;99274.16;336853;28;17789;-71
2023/07/27 00:36:23;;;;;;;1.15;1.05;;;;;;;16.25;78.65;99276.03;339435;28;5421;-71
2023/07/27 00:36:35;;;;;;;1.20;1.00;;;;;;;16.25;78.68;99267.31;339812;28;4496;-71
2023/07/27 00:36:47;;;;;;;1.90;1.08;;;;;;;16.25;78.73;99272.56;338979;28;18407;-72
2023/07/27 00:36:59;;;;;;;1.77;1.00;;;;;;;16.25;78.76;99270.78;342175;28;4571;-71
2023/07/27 00:37:12;;;;;;;1.25;1.00;;;;;;;16.25;78.76;99270.78;342850;28;11466;-72
2023/07/27 00:37:25;;;;;;;1.10;1.00;;;;;;;16.25;78.65;99265.53;339369;28;16491;-71
2023/07/27 00:37:37;;;;;;;1.40;1.20;;;;;;;16.26;78.81;99267.22;339741;28;11210;-71
2023/07/27 00:37:49;;;;;;;1.23;1.02;;;;;;;16.26;78.89;99266.38;342528;28;5005;-71
2023/07/27 00:38:01;;;;;;;1.33;1.10;;;;;;;16.23;79.10;99267.41;340991;28;4765;-71
2023/07/27 00:38:13;;;;;;;1.17;0.90;;;;;;;16.24;79.26;99271.72;337783;28;18073;-71
2023/07/27 00:38:26;;;;;;;1.45;1.05;;;;;;;16.22;79.57;99272.75;339651;28;4527;-71
2023/07/27 00:38:38;;;;;;;1.40;0.98;;;;;;;16.23;79.29;99271.81;336995;28;17950;-72
2023/07/27 00:38:51;;;;;;;1.08;0.95;;;;;;;16.24;79.47;99263.88;340218;28;5180;-71
2023/07/27 00:39:03;;;;;;;1.50;1.00;;;;;;;16.25;79.21;99265.53;334665;28;7832;-73
2023/07/27 00:39:15;;;;;;;1.60;1.15;;;;;;;16.25;79.43;99264.69;341173;28;4525;-72
2023/07/27 00:39:27;;;;;;;1.42;1.10;;;;;;;16.21;80.06;99264.03;340724;28;4991;-72
2023/07/27 00:39:39;;;;;;;1.17;1.08;;;;;;;16.20;80.20;99272.00;338451;28;17920;-71
2023/07/27 00:39:51;;;;;;;0.85;0.85;;;;;;;16.16;80.29;99266.13;340266;28;4596;-71
2023/07/27 00:40:04;;;;;;;0.80;0.80;;;;;;;16.16;80.21;99266.13;337305;28;18032;-71
2023/07/27 00:40:17;;;;;;;1.05;0.98;;;;;;;16.15;80.09;99267.03;340381;28;4536;-71
2023/07/27 00:40:29;;;;;;;1.17;1.00;;;;;;;16.13;80.17;99266.28;336060;28;16402;-72
2023/07/27 00:40:46;;;;;;;1.40;1.00;;;;;;;16.13;80.25;99266.28;335859;28;18018;-71
2023/07/27 00:40:58;;;;;;;2.42;1.13;;;;;;;16.11;80.33;99262.94;338213;28;17785;-71
2023/07/27 00:41:10;;;;;;;2.42;1.38;;;;;;;16.11;80.53;99265.56;335626;28;18120;-71
2023/07/27 00:41:22;;;;;;;1.77;1.30;;;;;;;16.12;80.31;99264.63;338940;28;4746;-71
2023/07/27 00:41:34;;;;;;;1.30;1.20;;;;;;;16.10;80.40;99259.47;337021;28;18122;-71
2023/07/27 00:41:46;;;;;;;1.33;1.20;;;;;;;16.09;80.19;99259.56;341268;28;6304;-71
2023/07/27 00:41:58;;;;;;;1.30;1.20;;;;;;;16.11;80.20;99262.94;341447;28;4656;-71
2023/07/27 00:42:10;;;;;;;1.17;0.93;;;;;;;16.11;80.08;99260.31;332063;28;5621;-72
2023/07/27 00:42:22;;;;;;;1.20;0.90;;;;;;;16.12;79.96;99259.38;340411;28;4510;-71
2023/07/27 00:42:34;;;;;;;1.27;0.93;;;;;;;16.14;79.77;99260.13;341509;28;5140;-72
2023/07/27 00:42:46;;;;;;;1.17;1.00;;;;;;;16.14;79.78;99258.34;334060;28;18224;-71
2023/07/27 00:42:58;;;;;;;1.20;1.00;;;;;;;16.14;80.09;99262.75;342385;28;4670;-71
2023/07/27 00:43:10;;;;;;;1.40;1.08;;;;;;;16.13;79.96;99266.28;340005;28;4498;-72
2023/07/27 00:43:23;;;;;;;1.40;1.00;;;;;;;16.14;79.68;99262.75;340696;28;4638;-71
2023/07/27 00:43:34;;;;;;;1.17;0.90;;;;;;;16.16;79.67;99268.75;334706;28;5311;-73
2023/07/27 00:43:46;;;;;;;1.05;0.93;;;;;;;16.16;79.53;99258.25;340654;28;4495;-71
2023/07/27 00:43:58;;;;;;;1.23;1.00;;;;;;;16.18;79.58;99266.88;341219;28;4506;-71
2023/07/27 00:44:10;;;;;;;1.10;1.00;;;;;;;16.17;79.08;99265.16;337918;28;17866;-71
2023/07/27 00:44:22;;;;;;;1.10;1.00;;;;;;;16.17;79.61;99260.75;342575;28;4549;-71
2023/07/27 00:44:34;;;;;;;1.25;1.08;;;;;;;16.16;79.46;99266.13;340775;28;5063;-73
2023/07/27 00:44:46;;;;;;;1.30;1.00;;;;;;;16.18;79.66;99261.63;340357;28;17284;-71
2023/07/27 00:44:58;;;;;;;1.15;0.93;;;;;;;16.17;79.67;99262.53;340181;28;5107;-71
2023/07/27 00:45:10;;;;;;;1.02;0.93;;;;;;;16.14;79.89;99266.22;338092;28;5865;-73
2023/07/27 00:45:23;;;;;;;1.10;1.00;;;;;;;16.12;80.10;99264.63;341247;28;5047;-71
2023/07/27 00:45:35;;;;;;;1.45;1.08;;;;;;;16.12;80.03;99264.63;341020;28;4553;-71
2023/07/27 00:45:48;;;;;;;1.90;1.15;;;;;;;16.14;79.96;99263.59;338500;28;17796;-71
2023/07/27 00:46:00;;;;;;;1.50;1.10;;;;;;;16.16;79.67;99266.13;340208;28;4869;-71
2023/07/27 00:46:13;;;;;;;0.90;0.88;;;;;;;16.13;80.19;99261.06;336839;28;18919;-71
2023/07/27 00:46:25;;;;;;;1.05;0.90;;;;;;;16.12;79.54;99262.84;341569;28;5175;-71
2023/07/27 00:46:37;;;;;;;1.13;1.00;;;;;;;16.13;79.82;99267.13;341346;28;18092;-71
2023/07/27 00:46:51;;;;;;;1.15;0.98;;;;;;;16.11;80.07;99268.16;343960;28;5073;-71
2023/07/27 00:47:04;;;;;;;1.08;0.90;;;;;;;16.15;79.89;99269.66;337210;28;17749;-71
2023/07/27 00:47:16;;;;;;;0.90;0.80;;;;;;;16.12;79.92;99264.63;340515;28;4520;-73
2023/07/27 00:47:28;;;;;;;0.98;0.88;;;;;;;16.11;79.87;99258.53;342771;28;4738;-71
2023/07/27 00:47:40;;;;;;;0.90;0.90;;;;;;;16.10;79.79;99266.50;342486;28;4606;-71
2023/07/27 00:47:52;;;;;;;0.90;0.90;;;;;;;16.10;80.08;99267.34;339667;28;17880;-72
2023/07/27 00:48:04;;;;;;;2.38;1.05;;;;;;;16.08;79.92;99258.72;336236;28;4706;-71
2023/07/27 00:48:18;;;;;;;2.80;1.20;;;;;;;16.10;79.55;99261.25;339772;28;8853;-73
2023/07/27 00:48:30;;;;;;;2.65;1.08;;;;;;;16.06;79.89;99257.13;343052;28;5161;-71
2023/07/27 00:48:42;;;;;;;1.10;1.00;;;;;;;16.08;79.88;99257.88;339780;28;18145;-73
2023/07/27 00:48:54;;;;;;;1.30;0.93;;;;;;;16.07;80.02;99253.56;341084;28;4807;-71
2023/07/27 00:49:07;;;;;;;1.42;1.00;;;;;;;16.04;80.18;99261.63;339498;28;5051;-73
2023/07/27 00:49:19;;;;;;;1.15;1.02;;;;;;;16.01;80.05;99257.41;337275;28;4523;-71
2023/07/27 00:49:32;;;;;;;1.00;0.90;;;;;;;16.03;80.61;99257.31;341289;28;4643;-72
2023/07/27 00:49:44;;;;;;;0.95;0.90;;;;;;;16.05;80.40;99263.31;341809;28;17112;-71
2023/07/27 00:49:56;;;;;;;1.10;1.00;;;;;;;16.07;79.92;99258.81;340372;28;4638;-72
2023/07/27 00:50:08;;;;;;;2.30;1.08;;;;;;;16.06;80.26;99265.00;337755;28;18961;-71
2023/07/27 00:50:20;;;;;;;2.45;1.10;;;;;;;16.04;80.54;99251.16;342328;28;4544;-71
2023/07/27 00:50:35;;;;;;;2.25;1.10;;;;;;;16.04;80.08;99251.97;340044;28;10705;-71
2023/07/27 00:50:48;;;;;;;1.20;0.98;;;;;;;16.07;79.87;99256.19;340911;28;5440;-70
2023/07/27 00:51:00;;;;;;;1.17;0.82;;;;;;;16.06;79.79;99254.53;333953;28;18057;-72
2023/07/27 00:51:13;;;;;;;1.10;0.75;;;;;;;16.06;79.76;99254.53;339743;28;6305;-73
2023/07/27 00:51:25;;;;;;;1.05;0.88;;;;;;;16.07;79.67;99256.19;337833;28;18230;-71
2023/07/27 00:51:42;;;;;;;1.10;1.00;;;;;;;16.05;79.92;99256.28;339593;28;5341;-71
2023/07/27 00:51:54;;;;;;;1.23;1.08;;;;;;;16.04;80.00;99256.41;338401;28;18184;-72
2023/07/27 00:52:07;;;;;;;1.30;1.10;;;;;;;16.01;80.00;99257.41;341401;28;5021;-71
2023/07/27 00:52:19;;;;;;;1.17;1.08;;;;;;;16.04;79.88;99251.16;337423;28;16196;-72
2023/07/27 00:52:31;;;;;;;1.20;1.10;;;;;;;16.04;79.60;99261.63;339889;28;4701;-71
2023/07/27 00:52:43;;;;;;;1.10;1.00;;;;;;;16.05;79.69;99253.66;337713;28;6385;-72
2023/07/27 00:52:55;;;;;;;1.05;0.98;;;;;;;16.04;80.32;99253.78;341161;28;4665;-71
2023/07/27 00:53:09;;;;;;;1.00;0.90;;;;;;;15.99;80.41;99259.28;341087;28;10321;-73
2023/07/27 00:53:21;;;;;;;1.00;0.82;;;;;;;16.00;80.59;99260.09;340965;28;17392;-72
2023/07/27 00:53:33;;;;;;;0.90;0.80;;;;;;;16.00;80.28;99257.47;341359;28;4546;-72
2023/07/27 00:53:46;;;;;;;1.08;0.90;;;;;;;16.01;80.11;99256.56;338989;28;17954;-70
2023/07/27 00:53:58;;;;;;;0.80;0.80;;;;;;;16.00;80.59;99254.88;337552;28;5743;-71
2023/07/27 00:54:11;;;;;;;0.93;0.70;;;;;;;15.98;80.59;99258.44;339879;28;18000;-72
2023/07/27 00:54:24;;;;;;;0.98;0.73;;;;;;;15.98;80.64;99253.19;338832;28;4535;-73
2023/07/27 00:54:36;;;;;;;1.73;0.93;;;;;;;15.96;80.58;99251.63;341495;28;17808;-72
2023/07/27 00:54:49;;;;;;;2.67;1.00;;;;;;;15.97;80.67;99253.28;339777;28;12002;-73
2023/07/27 00:55:01;;;;;;;3.10;1.05;;;;;;;15.95;80.28;99256.00;342479;28;5353;-72
2023/07/27 00:55:13;;;;;;;3.17;1.00;;;;;;;15.93;80.65;99255.25;342176;28;4502;-71
2023/07/27 00:55:25;;;;;;;1.65;1.00;;;;;;;15.89;80.64;99251.13;337601;28;12792;-72
2023/07/27 00:55:37;;;;;;;1.27;0.90;;;;;;;15.89;80.80;99248.50;338149;28;17312;-71
2023/07/27 00:55:50;;;;;;;1.05;0.82;;;;;;;15.87;80.93;99247.75;341402;28;4499;-71
2023/07/27 00:56:02;;;;;;;1.00;0.90;;;;;;;15.88;80.67;99252.06;338351;28;17848;-72
2023/07/27 00:56:14;;;;;;;1.00;0.90;;;;;;;15.90;80.50;99250.19;341149;28;4484;-72
2023/07/27 00:56:26;;;;;;;1.10;0.90;;;;;;;15.91;80.43;99251.88;338028;28;17851;-72
2023/07/27 00:56:39;;;;;;;1.52;0.98;;;;;;;15.92;80.31;99248.34;341702;28;6084;-72
2023/07/27 00:56:51;;;;;;;1.40;0.90;;;;;;;15.91;80.54;99249.25;338206;28;19650;-72
2023/07/27 00:57:04;;;;;;;1.17;0.95;;;;;;;15.91;80.67;99246.63;340848;28;5311;-71
2023/07/27 00:57:17;;;;;;;0.80;0.77;;;;;;;15.93;80.68;99244.75;338712;28;4569;-73
2023/07/27 00:57:29;;;;;;;0.80;0.70;;;;;;;15.94;80.32;99254.31;340396;28;4609;-71
2023/07/27 00:57:41;;;;;;;0.90;0.80;;;;;;;15.93;80.22;99249.16;337426;28;16731;-70
2023/07/27 00:57:53;;;;;;;0.90;0.80;;;;;;;15.93;80.45;99244.75;342568;28;4568;-71
2023/07/27 00:58:05;;;;;;;1.13;1.00;;;;;;;15.94;80.41;99250.88;342675;28;4507;-71
2023/07/27 00:58:18;;;;;;;1.13;1.00;;;;;;;15.93;80.21;99250.00;340068;28;18254;-71
2023/07/27 00:58:30;;;;;;;1.15;0.95;;;;;;;15.95;80.28;99245.50;340622;28;5092;-72
2023/07/27 00:58:43;;;;;;;1.27;0.93;;;;;;;15.96;80.07;99244.59;333117;28;11580;-73
2023/07/27 00:58:59;;;;;;;1.50;1.05;;;;;;;15.96;80.16;99249.81;341485;28;4487;-71